Time;durP1;ratioP1;P1;durP2;ratioP2;P2;SDS_P1;SDS_P2;PMS_P1;PMS_P2;Temp;Humidity;BMP_temperature;BMP_pressure;BME280_temperature;BME280_humidity;BME280_pressure;Samples;Min_cycle;Max_cycle;Signal;HPM_P1;HPM_P2
2022/01/06 00:01:40;;;;;;;;;;;;;;;2.39;88.38477;101619.9;;;;-83
2022/01/06 00:06:42;;;;;;;;;;;;;;;2.37;88.38086;101619.9;;;;-83
2022/01/06 00:07:08;;;;;;;7.5;1.1;;;;;;;;;;;;;-83
2022/01/06 00:11:40;;;;;;;;;;;;;;;2.36;88.43262;101617.9;;;;-84
2022/01/06 00:16:46;;;;;;;;;;;;;;;2.33;88.39258;101613;;;;-84
2022/01/06 00:26:41;;;;;;;;;;;;;;;2.28;88.4375;101615.7;;;;-84
2022/01/06 00:31:43;;;;;;;;;;;;;;;2.26;88.48828;101622.5;;;;-83
2022/01/06 00:36:41;;;;;;;;;;;;;;;2.23;88.4375;101619.6;;;;-83
2022/01/06 00:37:08;;;;;;;4.6;0.7;;;;;;;;;;;;;-83
2022/01/06 00:41:40;;;;;;;;;;;;;;;2.21;88.45508;101622.6;;;;-84
2022/01/06 00:46:40;;;;;;;;;;;;;;;2.18;88.47168;101625.1;;;;-83
2022/01/06 00:51:43;;;;;;;;;;;;;;;2.18;88.47168;101629.8;;;;-84
2022/01/06 00:56:40;;;;;;;;;;;;;;;2.15;88.47852;101635.8;;;;-84
2022/01/06 01:01:40;;;;;;;;;;;;;;;2.16;88.53223;101639.3;;;;-84
2022/01/06 01:06:40;;;;;;;;;;;;;;;2.15;88.58496;101643.2;;;;-83
2022/01/06 01:07:07;;;;;;;3.9;0.8;;;;;;;;;;;;;-84
2022/01/06 01:11:41;;;;;;;;;;;;;;;2.14;88.56152;101652.6;;;;-84
2022/01/06 01:16:40;;;;;;;;;;;;;;;2.13;88.63281;101660;;;;-84
2022/01/06 01:21:40;;;;;;;;;;;;;;;2.11;88.64063;101666.1;;;;-84
2022/01/06 01:26:41;;;;;;;;;;;;;;;2.09;88.70117;101669.7;;;;-83
2022/01/06 01:31:44;;;;;;;;;;;;;;;2.05;88.68066;101671.6;;;;-83
2022/01/06 01:36:42;;;;;;;;;;;;;;;2.02;88.69922;101680.9;;;;-83
2022/01/06 01:37:06;;;;;;;3.9;0.6;;;;;;;;;;;;;-84
2022/01/06 01:41:40;;;;;;;;;;;;;;;1.99;88.77832;101690.6;;;;-84
2022/01/06 01:46:43;;;;;;;;;;;;;;;1.95;88.81348;101696.9;;;;-82
2022/01/06 01:51:40;;;;;;;;;;;;;;;1.93;88.85352;101699.8;;;;-83
2022/01/06 01:56:42;;;;;;;;;;;;;;;1.89;88.86523;101706.6;;;;-82
2022/01/06 02:01:42;;;;;;;;;;;;;;;1.85;88.93555;101709.3;;;;-84
2022/01/06 02:06:43;;;;;;;;;;;;;;;1.84;88.98535;101715.3;;;;-81
2022/01/06 02:07:06;;;;;;;2.7;0.6;;;;;;;;;;;;;-82
2022/01/06 02:11:40;;;;;;;;;;;;;;;1.83;88.99512;101714.2;;;;-84
2022/01/06 02:16:41;;;;;;;;;;;;;;;1.81;88.95898;101715.4;;;;-84
2022/01/06 02:21:41;;;;;;;;;;;;;;;1.73;88.93066;101717.3;;;;-84
2022/01/06 02:26:40;;;;;;;;;;;;;;;1.7;88.98828;101722.9;;;;-84
2022/01/06 02:31:47;;;;;;;;;;;;;;;1.66;88.95898;101728.9;;;;-82
2022/01/06 02:36:41;;;;;;;;;;;;;;;1.61;88.98047;101734.3;;;;-82
2022/01/06 02:37:04;;;;;;;3;0.7;;;;;;;;;;;;;-82
2022/01/06 02:41:40;;;;;;;;;;;;;;;1.57;88.98145;101736;;;;-83
2022/01/06 02:46:40;;;;;;;;;;;;;;;1.49;88.98828;101738;;;;-83
2022/01/06 02:51:42;;;;;;;;;;;;;;;1.42;89.00488;101746.5;;;;-83
2022/01/06 02:56:42;;;;;;;;;;;;;;;1.37;88.9834;101754.1;;;;-84
2022/01/06 03:01:45;;;;;;;;;;;;;;;1.32;89.04004;101756.6;;;;-83
2022/01/06 03:06:42;;;;;;;;;;;;;;;1.24;89.0127;101750.3;;;;-82
2022/01/06 03:07:03;;;;;;;4;0.6;;;;;;;;;;;;;-82
2022/01/06 03:11:44;;;;;;;;;;;;;;;1.16;89.00684;101752.4;;;;-83
2022/01/06 03:16:40;;;;;;;;;;;;;;;1.1;89.00586;101759.3;;;;-82
2022/01/06 03:21:41;;;;;;;;;;;;;;;1.02;88.95508;101761.9;;;;-80
2022/01/06 03:26:40;;;;;;;;;;;;;;;0.94;88.96094;101767;;;;-80
2022/01/06 03:31:40;;;;;;;;;;;;;;;0.85;88.93262;101765;;;;-79
2022/01/06 03:36:40;;;;;;;;;;;;;;;0.79;88.97168;101770.4;;;;-80
2022/01/06 03:37:03;;;;;;;3.7;0.8;;;;;;;;;;;;;-80
2022/01/06 03:41:40;;;;;;;;;;;;;;;0.72;88.97852;101777.4;;;;-80
2022/01/06 03:46:40;;;;;;;;;;;;;;;0.66;88.95605;101782.6;;;;-80
2022/01/06 03:51:40;;;;;;;;;;;;;;;0.61;88.92383;101785.3;;;;-80
2022/01/06 03:56:40;;;;;;;;;;;;;;;0.56;88.9248;101788.9;;;;-80
2022/01/06 04:01:40;;;;;;;;;;;;;;;0.53;88.94238;101796.6;;;;-79
2022/01/06 04:06:40;;;;;;;;;;;;;;;0.49;88.94336;101796.8;;;;-79
2022/01/06 04:07:01;;;;;;;3.3;0.5;;;;;;;;;;;;;-79
2022/01/06 04:11:40;;;;;;;;;;;;;;;0.44;88.88965;101797;;;;-80
2022/01/06 04:16:40;;;;;;;;;;;;;;;0.4;88.93555;101798.1;;;;-80
2022/01/06 04:21:40;;;;;;;;;;;;;;;0.36;88.92773;101795.7;;;;-79
2022/01/06 04:26:40;;;;;;;;;;;;;;;0.29;88.83789;101806.7;;;;-79
2022/01/06 04:31:40;;;;;;;;;;;;;;;0.24;88.80469;101820.9;;;;-80
2022/01/06 04:36:46;;;;;;;;;;;;;;;0.18;88.8584;101818.2;;;;-79
2022/01/06 04:37:00;;;;;;;2.7;0.6;;;;;;;;;;;;;-79
2022/01/06 04:41:40;;;;;;;;;;;;;;;0.12;88.79102;101825.2;;;;-80
2022/01/06 04:46:40;;;;;;;;;;;;;;;0.09;88.86035;101826;;;;-80
2022/01/06 04:51:40;;;;;;;;;;;;;;;0.02;88.79199;101832.1;;;;-80
2022/01/06 04:56:40;;;;;;;;;;;;;;;-0.05;88.75488;101840.5;;;;-80
2022/01/06 05:01:40;;;;;;;;;;;;;;;-0.1;88.7998;101842.6;;;;-80
2022/01/06 05:06:40;;;;;;;;;;;;;;;-0.14;88.70605;101834.8;;;;-80
2022/01/06 05:06:58;;;;;;;1.2;0.4;;;;;;;;;;;;;-81
2022/01/06 05:11:40;;;;;;;;;;;;;;;-0.2;88.6582;101829.2;;;;-81
2022/01/06 05:16:40;;;;;;;;;;;;;;;-0.25;88.64648;101834.1;;;;-80
2022/01/06 05:21:40;;;;;;;;;;;;;;;-0.3;88.67188;101836.1;;;;-81
2022/01/06 05:26:40;;;;;;;;;;;;;;;-0.34;88.71777;101829.1;;;;-81
2022/01/06 05:31:41;;;;;;;;;;;;;;;-0.38;88.66504;101835.9;;;;-81
2022/01/06 05:36:40;;;;;;;;;;;;;;;-0.4;88.67285;101846;;;;-82
2022/01/06 05:36:57;;;;;;;2.3;0.8;;;;;;;;;;;;;-81
2022/01/06 05:41:41;;;;;;;;;;;;;;;-0.44;88.75098;101849.8;;;;-81
2022/01/06 05:46:40;;;;;;;;;;;;;;;-0.42;88.72266;101852.7;;;;-81
2022/01/06 05:51:40;;;;;;;;;;;;;;;-0.42;88.60449;101856.9;;;;-80
2022/01/06 05:56:40;;;;;;;;;;;;;;;-0.43;88.56836;101876.1;;;;-80
2022/01/06 06:01:40;;;;;;;;;;;;;;;-0.45;88.55371;101884.3;;;;-80
2022/01/06 06:06:40;;;;;;;;;;;;;;;-0.44;88.54492;101897.4;;;;-80
2022/01/06 06:06:56;;;;;;;1.9;0.6;;;;;;;;;;;;;-81
2022/01/06 06:11:40;;;;;;;;;;;;;;;-0.45;88.52148;101894.3;;;;-81
2022/01/06 06:16:41;;;;;;;;;;;;;;;-0.5;88.54395;101901.1;;;;-79
2022/01/06 06:21:40;;;;;;;;;;;;;;;-0.54;88.51367;101900.7;;;;-79
2022/01/06 06:26:40;;;;;;;;;;;;;;;-0.57;88.58301;101908.3;;;;-80
2022/01/06 06:31:40;;;;;;;;;;;;;;;-0.6;88.57715;101911.7;;;;-81
2022/01/06 06:36:40;;;;;;;;;;;;;;;-0.63;88.56934;101908.8;;;;-80
2022/01/06 06:36:55;;;;;;;2.8;0.8;;;;;;;;;;;;;-80
2022/01/06 06:41:40;;;;;;;;;;;;;;;-0.66;88.53125;101910.4;;;;-80
2022/01/06 06:46:40;;;;;;;;;;;;;;;-0.68;88.5166;101918.4;;;;-80
2022/01/06 06:51:41;;;;;;;;;;;;;;;-0.71;88.46875;101927.6;;;;-80
2022/01/06 06:56:40;;;;;;;;;;;;;;;-0.72;88.4668;101923.6;;;;-80
2022/01/06 07:01:40;;;;;;;;;;;;;;;-0.76;88.54492;101922.9;;;;-80
2022/01/06 07:06:40;;;;;;;;;;;;;;;-0.73;88.58105;101923.8;;;;-80
2022/01/06 07:06:54;;;;;;;1.8;0.6;;;;;;;;;;;;;-81
2022/01/06 07:11:40;;;;;;;;;;;;;;;-0.74;88.5166;101934.2;;;;-80
2022/01/06 07:16:40;;;;;;;;;;;;;;;-0.74;88.50586;101939.7;;;;-80
2022/01/06 07:21:40;;;;;;;;;;;;;;;-0.71;88.56543;101947.8;;;;-79
2022/01/06 07:26:40;;;;;;;;;;;;;;;-0.68;88.57031;101944.6;;;;-79
2022/01/06 07:31:40;;;;;;;;;;;;;;;-0.63;88.60156;101946.9;;;;-79
2022/01/06 07:36:40;;;;;;;;;;;;;;;-0.53;88.70898;101951.1;;;;-79
2022/01/06 07:36:53;;;;;;;2.5;0.7;;;;;;;;;;;;;-80
2022/01/06 07:41:40;;;;;;;;;;;;;;;-0.47;88.6377;101951.8;;;;-85
2022/01/06 07:46:43;;;;;;;;;;;;;;;-0.41;88.66016;101962.2;;;;-86
2022/01/06 07:51:40;;;;;;;;;;;;;;;-0.35;88.74609;101960.8;;;;-85
2022/01/06 07:56:46;;;;;;;;;;;;;;;-0.31;88.7002;101962.4;;;;-85
2022/01/06 08:01:41;;;;;;;;;;;;;;;-0.32;88.67676;101964.1;;;;-85
2022/01/06 08:06:40;;;;;;;;;;;;;;;-0.33;88.68555;101965.1;;;;-84
2022/01/06 08:06:52;;;;;;;1.3;0.4;;;;;;;;;;;;;-84
2022/01/06 08:11:41;;;;;;;;;;;;;;;-0.34;88.69434;101965.3;;;;-84
2022/01/06 08:16:40;;;;;;;;;;;;;;;-0.37;88.72266;101967.1;;;;-85
2022/01/06 08:21:41;;;;;;;;;;;;;;;-0.38;88.7627;101972.9;;;;-85
2022/01/06 08:26:40;;;;;;;;;;;;;;;-0.37;88.78613;101975.8;;;;-83
2022/01/06 08:31:40;;;;;;;;;;;;;;;-0.32;88.78418;101980.6;;;;-85
2022/01/06 08:36:41;;;;;;;;;;;;;;;-0.29;88.83496;101976;;;;-85
2022/01/06 08:36:53;;;;;;;2.2;0.7;;;;;;;;;;;;;-85
2022/01/06 08:41:41;;;;;;;;;;;;;;;-0.26;88.83008;101980.3;;;;-85
2022/01/06 08:46:41;;;;;;;;;;;;;;;-0.19;88.8125;101989.8;;;;-85
2022/01/06 08:51:40;;;;;;;;;;;;;;;-0.15;88.70215;101996.4;;;;-85
2022/01/06 08:56:42;;;;;;;;;;;;;;;-0.13;88.70801;101996;;;;-85
2022/01/06 09:01:40;;;;;;;;;;;;;;;-0.08;88.66309;101997.2;;;;-86
2022/01/06 09:06:40;;;;;;;;;;;;;;;-0.06;88.65625;101994.3;;;;-85
2022/01/06 09:06:50;;;;;;;4.1;0.8;;;;;;;;;;;;;-85
2022/01/06 09:11:42;;;;;;;;;;;;;;;0.01;88.63672;101997.5;;;;-85
2022/01/06 09:16:42;;;;;;;;;;;;;;;0.09;88.49414;101996.7;;;;-85
2022/01/06 09:21:43;;;;;;;;;;;;;;;0.18;88.32813;102001.1;;;;-85
2022/01/06 09:26:42;;;;;;;;;;;;;;;0.29;88.15918;102002.8;;;;-86
2022/01/06 09:31:40;;;;;;;;;;;;;;;0.4;87.93359;102000.8;;;;-84
2022/01/06 09:36:41;;;;;;;;;;;;;;;0.45;87.8457;102002.4;;;;-85
2022/01/06 09:36:51;;;;;;;5.8;1;;;;;;;;;;;;;-85
2022/01/06 09:41:41;;;;;;;;;;;;;;;0.51;88.12793;102002.9;;;;-85
2022/01/06 09:46:41;;;;;;;;;;;;;;;0.6;87.9082;102002.6;;;;-84
2022/01/06 09:51:40;;;;;;;;;;;;;;;0.76;87.67188;102007.1;;;;-84
2022/01/06 09:56:41;;;;;;;;;;;;;;;0.89;87.32031;102002.9;;;;-85
2022/01/06 10:01:40;;;;;;;;;;;;;;;0.96;87.1748;102006.2;;;;-85
2022/01/06 10:06:40;;;;;;;;;;;;;;;1.03;87.23145;102006.2;;;;-85
2022/01/06 10:07:00;;;;;;;2.8;1.1;;;;;;;;;;;;;-85
2022/01/06 10:11:47;;;;;;;;;;;;;;;1.16;87.26758;101999.2;;;;-84
2022/01/06 10:16:44;;;;;;;;;;;;;;;1.35;86.97168;101999.2;;;;-84
2022/01/06 10:21:43;;;;;;;;;;;;;;;1.53;86.57813;101997.6;;;;-83
2022/01/06 10:26:51;;;;;;;;;;;;;;;1.63;86.37988;101992.8;;;;-84
2022/01/06 10:31:40;;;;;;;;;;;;;;;1.71;86.43945;101985.5;;;;-85
2022/01/06 10:36:41;;;;;;;;;;;;;;;1.78;86.57324;101980.7;;;;-85
2022/01/06 10:36:54;;;;;;;4.3;1.4;;;;;;;;;;;;;-85
2022/01/06 10:41:41;;;;;;;;;;;;;;;1.88;86.5166;101983.4;;;;-85
2022/01/06 10:46:49;;;;;;;;;;;;;;;2;86.39063;101979;;;;-84
2022/01/06 10:51:43;;;;;;;;;;;;;;;2.12;86.31445;101988.4;;;;-84
2022/01/06 10:56:40;;;;;;;;;;;;;;;2.19;86.3623;101983.4;;;;-84
2022/01/06 11:01:43;;;;;;;;;;;;;;;2.3;86.1582;101983.5;;;;-84
2022/01/06 11:06:43;;;;;;;;;;;;;;;2.4;86.14355;101978.7;;;;-84
2022/01/06 11:06:53;;;;;;;5.4;2.1;;;;;;;;;;;;;-84
2022/01/06 11:12:26;;;;;;;;;;;;;;;2.51;86.36133;101978.8;;;;-83
2022/01/06 11:16:42;;;;;;;;;;;;;;;2.64;86.50586;101980.6;;;;-82
2022/01/06 11:21:42;;;;;;;;;;;;;;;2.76;86.8457;101980.6;;;;-84
2022/01/06 11:26:42;;;;;;;;;;;;;;;2.87;86.74707;101981.5;;;;-83
2022/01/06 11:31:45;;;;;;;;;;;;;;;2.97;86.73633;101980;;;;-82
2022/01/06 11:36:40;;;;;;;;;;;;;;;3.05;86.7002;101974.9;;;;-79
2022/01/06 11:37:00;;;;;;;4.9;1.4;;;;;;;;;;;;;-79
2022/01/06 11:41:43;;;;;;;;;;;;;;;3.12;86.73535;101976.6;;;;-84
2022/01/06 11:46:52;;;;;;;;;;;;;;;3.2;86.62109;101972.9;;;;-85
2022/01/06 11:51:51;;;;;;;;;;;;;;;3.26;86.37012;101971;;;;-85
2022/01/06 11:56:50;;;;;;;;;;;;;;;3.33;86.2666;101956.9;;;;-85
2022/01/06 12:01:56;;;;;;;;;;;;;;;3.39;86.14551;101952.2;;;;-82
2022/01/06 12:06:45;;;;;;;;;;;;;;;3.46;85.93164;101956.4;;;;-83
2022/01/06 12:07:14;;;;;;;3.4;0.9;;;;;;;;;;;;;-83
2022/01/06 12:11:48;;;;;;;;;;;;;;;3.55;85.71289;101949.9;;;;-83
2022/01/06 12:16:42;;;;;;;;;;;;;;;3.61;85.57129;101943.1;;;;-83
2022/01/06 12:21:40;;;;;;;;;;;;;;;3.65;85.51563;101939;;;;-83
2022/01/06 12:26:41;;;;;;;;;;;;;;;3.67;85.41211;101935.6;;;;-82
2022/01/06 12:31:42;;;;;;;;;;;;;;;3.74;85.34668;101931.3;;;;-83
2022/01/06 12:36:43;;;;;;;;;;;;;;;3.88;85.04883;101927.6;;;;-83
2022/01/06 12:36:55;;;;;;;2.3;0.7;;;;;;;;;;;;;-83
2022/01/06 12:41:42;;;;;;;;;;;;;;;4.02;84.76074;101921;;;;-82
2022/01/06 12:46:42;;;;;;;;;;;;;;;4.1;84.72266;101918.3;;;;-83
2022/01/06 12:51:41;;;;;;;;;;;;;;;4.21;84.46094;101915.1;;;;-84
2022/01/06 12:56:41;;;;;;;;;;;;;;;4.3;84.2168;101908.3;;;;-83
2022/01/06 13:01:41;;;;;;;;;;;;;;;4.36;83.99902;101906.1;;;;-83
2022/01/06 13:06:42;;;;;;;;;;;;;;;4.3;84.00977;101908.4;;;;-82
2022/01/06 13:06:52;;;;;;;2.8;0.7;;;;;;;;;;;;;-82
2022/01/06 13:11:51;;;;;;;;;;;;;;;4.19;84.37012;101912.2;;;;-83
2022/01/06 13:16:40;;;;;;;;;;;;;;;4.12;84.8457;101916.2;;;;-84
2022/01/06 13:21:41;;;;;;;;;;;;;;;4.06;85.35547;101913.6;;;;-84
2022/01/06 13:26:47;;;;;;;;;;;;;;;4.02;85.65234;101914.6;;;;-83
2022/01/06 13:31:40;;;;;;;;;;;;;;;4;85.89063;101904.7;;;;-84
2022/01/06 13:36:40;;;;;;;;;;;;;;;3.97;86.02637;101886.9;;;;-84
2022/01/06 13:36:50;;;;;;;3.7;0.7;;;;;;;;;;;;;-84
2022/01/06 13:41:46;;;;;;;;;;;;;;;4.01;86.09668;101884.1;;;;-83
2022/01/06 13:51:41;;;;;;;;;;;;;;;4.14;85.90625;101864.5;;;;-83
2022/01/06 13:56:41;;;;;;;;;;;;;;;4.17;85.86816;101860.9;;;;-83
2022/01/06 14:01:42;;;;;;;;;;;;;;;4.18;85.75098;101862.5;;;;-83
2022/01/06 14:06:40;;;;;;;;;;;;;;;4.17;85.79199;101865.7;;;;-83
2022/01/06 14:06:51;;;;;;;3.2;0.8;;;;;;;;;;;;;-83
2022/01/06 14:11:41;;;;;;;;;;;;;;;4.13;85.65234;101856.5;;;;-83
2022/01/06 14:16:40;;;;;;;;;;;;;;;4.1;85.78906;101856.5;;;;-82
2022/01/06 14:21:44;;;;;;;;;;;;;;;4.04;85.91895;101848.1;;;;-83
2022/01/06 14:26:41;;;;;;;;;;;;;;;4;86.19336;101847.7;;;;-83
2022/01/06 14:31:40;;;;;;;;;;;;;;;3.96;86.40137;101846.5;;;;-83
2022/01/06 14:36:40;;;;;;;;;;;;;;;3.9;86.62109;101834.3;;;;-82
2022/01/06 14:36:51;;;;;;;3.7;1.2;;;;;;;;;;;;;-82
2022/01/06 14:41:40;;;;;;;;;;;;;;;3.86;86.76172;101829.4;;;;-83
2022/01/06 14:46:40;;;;;;;;;;;;;;;3.83;86.85449;101829.2;;;;-78
2022/01/06 14:51:41;;;;;;;;;;;;;;;3.77;86.88477;101821;;;;-83
2022/01/06 14:56:40;;;;;;;;;;;;;;;3.71;86.99316;101819.5;;;;-84
2022/01/06 15:01:41;;;;;;;;;;;;;;;3.65;87.02637;101829.5;;;;-81
2022/01/06 15:06:40;;;;;;;;;;;;;;;3.6;87.11426;101835.7;;;;-82
2022/01/06 15:06:50;;;;;;;5.2;1.2;;;;;;;;;;;;;-82
2022/01/06 15:11:43;;;;;;;;;;;;;;;3.57;87.1709;101839.3;;;;-83
2022/01/06 15:16:40;;;;;;;;;;;;;;;3.57;87.24805;101842.5;;;;-83
2022/01/06 15:21:40;;;;;;;;;;;;;;;3.58;87.30469;101846.3;;;;-83
2022/01/06 15:26:40;;;;;;;;;;;;;;;3.58;87.31543;101851.5;;;;-82
2022/01/06 15:31:40;;;;;;;;;;;;;;;3.53;87.34961;101852.4;;;;-83
2022/01/06 15:36:40;;;;;;;;;;;;;;;3.47;87.36914;101852.5;;;;-83
2022/01/06 15:36:50;;;;;;;5.1;1;;;;;;;;;;;;;-83
2022/01/06 15:41:40;;;;;;;;;;;;;;;3.38;87.37207;101850.7;;;;-83
2022/01/06 15:46:41;;;;;;;;;;;;;;;3.25;87.56348;101852.5;;;;-83
2022/01/06 15:51:40;;;;;;;;;;;;;;;3.15;87.76074;101855;;;;-83
2022/01/06 15:56:40;;;;;;;;;;;;;;;3.07;88.04785;101866.9;;;;-83
2022/01/06 16:06:43;;;;;;;;;;;;;;;2.95;88.35938;101863;;;;-84
2022/01/06 16:06:53;;;;;;;3.6;1.2;;;;;;;;;;;;;-84
2022/01/06 16:11:40;;;;;;;;;;;;;;;2.88;88.4209;101854.7;;;;-83
2022/01/06 16:16:40;;;;;;;;;;;;;;;2.8;88.62207;101856.7;;;;-79
2022/01/06 16:21:40;;;;;;;;;;;;;;;2.76;88.61328;101857.4;;;;-78
2022/01/06 16:26:41;;;;;;;;;;;;;;;2.71;88.69043;101856.2;;;;-85
2022/01/06 16:31:47;;;;;;;;;;;;;;;2.68;88.63965;101854.6;;;;-87
2022/01/06 16:36:42;;;;;;;;;;;;;;;2.64;88.64063;101850.7;;;;-85
2022/01/06 16:36:52;;;;;;;5.4;1.5;;;;;;;;;;;;;-85
2022/01/06 16:41:40;;;;;;;;;;;;;;;2.59;88.60938;101837.8;;;;-84
2022/01/06 16:46:53;;;;;;;;;;;;;;;2.56;88.61523;101824.1;;;;-84
2022/01/06 16:51:41;;;;;;;;;;;;;;;2.52;88.58594;101811.8;;;;-84
2022/01/06 16:56:42;;;;;;;;;;;;;;;2.5;88.59277;101794.6;;;;-84
2022/01/06 17:01:40;;;;;;;;;;;;;;;2.48;88.63086;101785.6;;;;-84
2022/01/06 17:06:41;;;;;;;;;;;;;;;2.49;88.58887;101779.8;;;;-84
2022/01/06 17:06:59;;;;;;;7.7;1.5;;;;;;;;;;;;;-84
2022/01/06 17:11:40;;;;;;;;;;;;;;;2.5;88.63574;101781.3;;;;-85
2022/01/06 17:16:42;;;;;;;;;;;;;;;2.52;88.62891;101772;;;;-84
2022/01/06 17:21:41;;;;;;;;;;;;;;;2.55;88.65625;101767.2;;;;-84
2022/01/06 17:26:42;;;;;;;;;;;;;;;2.6;88.60254;101752.8;;;;-85
2022/01/06 17:31:40;;;;;;;;;;;;;;;2.66;88.5166;101752.3;;;;-84
2022/01/06 17:36:42;;;;;;;;;;;;;;;2.72;88.4082;101747.4;;;;-86
2022/01/06 17:36:53;;;;;;;9.1;2.1;;;;;;;;;;;;;-86
2022/01/06 17:41:41;;;;;;;;;;;;;;;2.74;88.17383;101742.7;;;;-85
2022/01/06 17:46:43;;;;;;;;;;;;;;;2.75;88.02539;101734.6;;;;-84
2022/01/06 17:51:41;;;;;;;;;;;;;;;2.74;87.74219;101728.2;;;;-84
2022/01/06 17:56:40;;;;;;;;;;;;;;;2.75;87.52734;101717.3;;;;-83
2022/01/06 18:01:41;;;;;;;;;;;;;;;2.76;87.39844;101709.6;;;;-83
2022/01/06 18:06:42;;;;;;;;;;;;;;;2.76;87.46387;101712.1;;;;-82
2022/01/06 18:06:54;;;;;;;8;2;;;;;;;;;;;;;-82
2022/01/06 18:11:40;;;;;;;;;;;;;;;2.74;87.51465;101713.6;;;;-82
2022/01/06 18:16:42;;;;;;;;;;;;;;;2.72;87.66113;101712;;;;-84
2022/01/06 18:21:40;;;;;;;;;;;;;;;2.7;87.78906;101705.3;;;;-83
2022/01/06 18:26:42;;;;;;;;;;;;;;;2.71;87.51758;101701.6;;;;-84
2022/01/06 18:31:45;;;;;;;;;;;;;;;2.71;87.49609;101694.6;;;;-82
2022/01/06 18:36:39;;;;;;;6.2;2.2;;;;;;;;;;;;;-83
2022/01/06 18:36:51;;;;;;;;;;;;;;;2.72;87.32422;101688.9;;;;-83
2022/01/06 18:41:40;;;;;;;;;;;;;;;2.76;87.25781;101690.9;;;;-84
2022/01/06 18:46:41;;;;;;;;;;;;;;;2.77;87.22754;101677.5;;;;-81
2022/01/06 18:51:40;;;;;;;;;;;;;;;2.77;87.08789;101679.8;;;;-83
2022/01/06 18:56:40;;;;;;;;;;;;;;;2.77;87.0752;101664.1;;;;-84
2022/01/06 19:01:40;;;;;;;;;;;;;;;2.76;86.94336;101662.1;;;;-84
2022/01/06 19:06:38;;;;;;;10.3;3;;;;;;;;;;;;;-79
2022/01/06 19:06:48;;;;;;;;;;;;;;;2.76;87.10645;101660;;;;-78
2022/01/06 19:11:40;;;;;;;;;;;;;;;2.79;86.99219;101651.4;;;;-80
2022/01/06 19:21:40;;;;;;;;;;;;;;;2.8;86.79004;101639.2;;;;-80
2022/01/06 19:26:40;;;;;;;;;;;;;;;2.8;86.77734;101640.8;;;;-79
2022/01/06 19:31:43;;;;;;;;;;;;;;;2.79;86.90723;101629.1;;;;-79
2022/01/06 19:36:46;;;;;;;13.2;3.3;;;;;;;;;;;;;-81
2022/01/06 19:36:57;;;;;;;;;;;;;;;2.79;86.9707;101623;;;;-81
2022/01/06 19:41:42;;;;;;;;;;;;;;;2.8;86.95117;101626.3;;;;-80
2022/01/06 19:46:41;;;;;;;;;;;;;;;2.81;86.83301;101622.6;;;;-79
2022/01/06 19:51:46;;;;;;;;;;;;;;;2.8;86.92969;101617.6;;;;-83
2022/01/06 19:56:42;;;;;;;;;;;;;;;2.83;86.61133;101610.8;;;;-83
2022/01/06 20:01:40;;;;;;;;;;;;;;;2.86;86.76855;101596.5;;;;-85
2022/01/06 20:06:44;;;;;;;9.7;3.3;;;;;;;;;;;;;-85
2022/01/06 20:06:54;;;;;;;;;;;;;;;2.88;86.73926;101595.1;;;;-83
2022/01/06 20:11:41;;;;;;;;;;;;;;;2.9;86.43945;101581.5;;;;-86
2022/01/06 20:16:47;;;;;;;;;;;;;;;2.91;86.61523;101582.1;;;;-87
2022/01/06 20:21:40;;;;;;;;;;;;;;;2.93;86.54492;101575.9;;;;-85
2022/01/06 20:26:43;;;;;;;;;;;;;;;2.95;86.64746;101568.5;;;;-85
2022/01/06 20:31:40;;;;;;;;;;;;;;;2.96;86.5498;101558.8;;;;-85
2022/01/06 20:36:36;;;;;;;11.6;3.3;;;;;;;;;;;;;-85
2022/01/06 20:36:50;;;;;;;;;;;;;;;2.97;86.50879;101550.6;;;;-84
2022/01/06 20:41:40;;;;;;;;;;;;;;;2.99;86.56641;101549.6;;;;-83
2022/01/06 20:46:44;;;;;;;;;;;;;;;3.01;86.57031;101537.4;;;;-83
2022/01/06 20:51:40;;;;;;;;;;;;;;;3.03;86.16309;101526.1;;;;-85
2022/01/06 20:56:40;;;;;;;;;;;;;;;3.05;86.25586;101521.6;;;;-84
2022/01/06 21:01:40;;;;;;;;;;;;;;;3.07;86.14844;101506.7;;;;-85
2022/01/06 21:06:36;;;;;;;9.4;3.2;;;;;;;;;;;;;-85
2022/01/06 21:06:46;;;;;;;;;;;;;;;3.07;86.21387;101498;;;;-84
2022/01/06 21:11:41;;;;;;;;;;;;;;;3.08;86.2373;101497.7;;;;-85
2022/01/06 21:16:40;;;;;;;;;;;;;;;3.1;85.96973;101487.6;;;;-86
2022/01/06 21:21:41;;;;;;;;;;;;;;;3.09;86.17383;101489.1;;;;-84
2022/01/06 21:26:42;;;;;;;;;;;;;;;3.1;86.03516;101482.6;;;;-85
2022/01/06 21:31:41;;;;;;;;;;;;;;;3.1;86.01465;101470;;;;-84
2022/01/06 21:36:35;;;;;;;9;3;;;;;;;;;;;;;-80
2022/01/06 21:36:44;;;;;;;;;;;;;;;3.1;86.06738;101457.8;;;;-80
2022/01/06 21:41:41;;;;;;;;;;;;;;;3.11;85.83008;101445.2;;;;-79
2022/01/06 21:46:40;;;;;;;;;;;;;;;3.12;86.0166;101439.9;;;;-79
2022/01/06 21:51:40;;;;;;;;;;;;;;;3.13;85.79199;101434.2;;;;-79
2022/01/06 21:56:44;;;;;;;;;;;;;;;3.13;85.91211;101425.9;;;;-79
2022/01/06 22:01:51;;;;;;;;;;;;;;;3.13;85.93359;101417.6;;;;-79
2022/01/06 22:06:38;;;;;;;10.8;3.1;;;;;;;;;;;;;-78
2022/01/06 22:06:52;;;;;;;;;;;;;;;3.13;85.90137;101418.8;;;;-79
2022/01/06 22:11:42;;;;;;;;;;;;;;;3.14;85.87012;101407.5;;;;-83
2022/01/06 22:16:40;;;;;;;;;;;;;;;3.15;85.39453;101402.2;;;;-83
2022/01/06 22:21:42;;;;;;;;;;;;;;;3.15;85.39453;101398.5;;;;-83
2022/01/06 22:26:40;;;;;;;;;;;;;;;3.14;85.69629;101396.7;;;;-78
2022/01/06 22:31:40;;;;;;;;;;;;;;;3.14;85.57715;101390.5;;;;-76
2022/01/06 22:36:34;;;;;;;12;3.2;;;;;;;;;;;;;-79
2022/01/06 22:36:46;;;;;;;;;;;;;;;3.13;85.66211;101391;;;;-80
2022/01/06 22:41:40;;;;;;;;;;;;;;;3.14;85.19531;101389.8;;;;-78
2022/01/06 22:46:40;;;;;;;;;;;;;;;3.14;85.16211;101385.1;;;;-78
2022/01/06 22:51:40;;;;;;;;;;;;;;;3.12;85.36719;101373.3;;;;-79
2022/01/06 22:56:40;;;;;;;;;;;;;;;3.11;85.29883;101360.2;;;;-79
2022/01/06 23:01:40;;;;;;;;;;;;;;;3.11;85.25488;101360.8;;;;-79
2022/01/06 23:06:33;;;;;;;9.8;3;;;;;;;;;;;;;-78
2022/01/06 23:06:43;;;;;;;;;;;;;;;3.11;84.95117;101337.6;;;;-78
2022/01/06 23:11:41;;;;;;;;;;;;;;;3.11;85.01563;101332.5;;;;-79
2022/01/06 23:16:40;;;;;;;;;;;;;;;3.11;84.94043;101324.9;;;;-83
2022/01/06 23:21:40;;;;;;;;;;;;;;;3.1;85.02539;101319.2;;;;-83
2022/01/06 23:26:40;;;;;;;;;;;;;;;3.1;84.55859;101324.5;;;;-84
2022/01/06 23:31:41;;;;;;;;;;;;;;;3.11;84.79883;101327;;;;-83
2022/01/06 23:36:33;;;;;;;11.3;2.7;;;;;;;;;;;;;-82
2022/01/06 23:36:43;;;;;;;;;;;;;;;3.11;85.07031;101314.3;;;;-82
2022/01/06 23:41:40;;;;;;;;;;;;;;;3.1;85.1875;101317.3;;;;-83
2022/01/06 23:46:42;;;;;;;;;;;;;;;3.06;85.31152;101310;;;;-84
2022/01/06 23:51:41;;;;;;;;;;;;;;;3.03;85.77051;101292.5;;;;-83
2022/01/06 23:56:40;;;;;;;;;;;;;;;2.98;86.15234;101297.5;;;;-84
